Port Saunders, Canada
Current Conditions -  °F | °C
As of 11:00 AM on Wednesday 26 Nov 2014 (Local Time) from CWDH Reporting Station
Scattered Clouds Scattered Clouds  
Wind Chill: 28°   Ceiling: Unl
Heat Index: 39°   Visibility: 9mi
Dew Point: 27°   Wind: 23mph
Humidity: 63%   Direction: 260°W
Pressure: 29.83"   Gusts: 35mph
Location:  50.65°N, 57.27°W
Report Text: CWDH 261400Z AUTO 26020G30KT 9SM SCT028 SCT046 04/M03 A2983 RMK SLP102 PK WND 26033/// T00381027 WSI/SWOB
Loading
Personal Weather Stations






























Interactive Weather Map New forecast layout! Learn more

10-Day Weather Forecast

Advertisements
Track Severe Weather on mobile